sensor_id;sensor_type;location;lat;lon;timestamp;temperature;humidity
52321;DHT22;38261;54.090;13.382;2023-03-26T00:00:00;8.20;99.90
52321;DHT22;38261;54.090;13.382;2023-03-26T00:01:24;8.20;99.90
52321;DHT22;38261;54.090;13.382;2023-03-26T00:02:46;8.20;99.90
52321;DHT22;38261;54.090;13.382;2023-03-26T00:04:09;8.10;99.90
52321;DHT22;38261;54.090;13.382;2023-03-26T00:05:31;8.10;99.90
52321;DHT22;38261;54.090;13.382;2023-03-26T00:06:53;8.10;99.90
52321;DHT22;38261;54.090;13.382;2023-03-26T00:08:16;8.10;99.90
52321;DHT22;38261;54.090;13.382;2023-03-26T00:09:38;8.10;99.90
52321;DHT22;38261;54.090;13.382;2023-03-26T00:11:02;8.10;99.90
52321;DHT22;38261;54.090;13.382;2023-03-26T00:12:24;8.20;99.90
52321;DHT22;38261;54.090;13.382;2023-03-26T00:13:47;8.10;99.90
52321;DHT22;38261;54.090;13.382;2023-03-26T00:15:09;8.10;99.90
52321;DHT22;38261;54.090;13.382;2023-03-26T00:16:32;8.00;99.90
52321;DHT22;38261;54.090;13.382;2023-03-26T00:17:54;8.00;99.90
52321;DHT22;38261;54.090;13.382;2023-03-26T00:19:17;8.00;99.90
52321;DHT22;38261;54.090;13.382;2023-03-26T00:20:39;8.00;99.90
52321;DHT22;38261;54.090;13.382;2023-03-26T00:22:02;8.00;99.90
52321;DHT22;38261;54.090;13.382;2023-03-26T00:23:25;8.00;99.90
52321;DHT22;38261;54.090;13.382;2023-03-26T00:24:48;7.90;99.90
52321;DHT22;38261;54.090;13.382;2023-03-26T00:26:12;7.90;99.90
52321;DHT22;38261;54.090;13.382;2023-03-26T00:27:34;7.90;99.90
52321;DHT22;38261;54.090;13.382;2023-03-26T00:28:57;7.90;99.90
52321;DHT22;38261;54.090;13.382;2023-03-26T00:30:21;7.90;99.90
52321;DHT22;38261;54.090;13.382;2023-03-26T00:31:43;7.90;99.90
52321;DHT22;38261;54.090;13.382;2023-03-26T00:33:08;7.90;99.90
52321;DHT22;38261;54.090;13.382;2023-03-26T00:34:32;7.90;99.90
52321;DHT22;38261;54.090;13.382;2023-03-26T00:35:56;7.90;99.90
52321;DHT22;38261;54.090;13.382;2023-03-26T00:37:21;7.90;99.90
52321;DHT22;38261;54.090;13.382;2023-03-26T00:38:47;7.80;99.90
52321;DHT22;38261;54.090;13.382;2023-03-26T00:40:10;7.90;99.90
52321;DHT22;38261;54.090;13.382;2023-03-26T00:41:33;7.90;99.90
52321;DHT22;38261;54.090;13.382;2023-03-26T00:42:58;7.90;99.90
52321;DHT22;38261;54.090;13.382;2023-03-26T00:44:20;7.90;99.90
52321;DHT22;38261;54.090;13.382;2023-03-26T00:45:42;7.90;99.90
52321;DHT22;38261;54.090;13.382;2023-03-26T00:47:04;7.90;99.90
52321;DHT22;38261;54.090;13.382;2023-03-26T00:48:27;7.90;99.90
52321;DHT22;38261;54.090;13.382;2023-03-26T00:50:06;7.90;99.90
52321;DHT22;38261;54.090;13.382;2023-03-26T00:51:36;7.90;99.90
52321;DHT22;38261;54.090;13.382;2023-03-26T00:53:00;7.80;99.90
52321;DHT22;38261;54.090;13.382;2023-03-26T00:54:23;7.90;99.90
52321;DHT22;38261;54.090;13.382;2023-03-26T00:55:46;7.90;99.90
52321;DHT22;38261;54.090;13.382;2023-03-26T00:57:08;7.90;99.90
52321;DHT22;38261;54.090;13.382;2023-03-26T00:58:31;8.00;99.90
52321;DHT22;38261;54.090;13.382;2023-03-26T00:59:54;7.90;99.90
52321;DHT22;38261;54.090;13.382;2023-03-26T01:01:22;7.90;99.90
52321;DHT22;38261;54.090;13.382;2023-03-26T01:02:49;7.90;99.90
52321;DHT22;38261;54.090;13.382;2023-03-26T01:04:24;7.90;99.90
52321;DHT22;38261;54.090;13.382;2023-03-26T01:05:51;7.90;99.90
52321;DHT22;38261;54.090;13.382;2023-03-26T01:07:16;7.90;99.90
52321;DHT22;38261;54.090;13.382;2023-03-26T01:08:50;7.90;99.90
52321;DHT22;38261;54.090;13.382;2023-03-26T01:10:13;7.90;99.90
52321;DHT22;38261;54.090;13.382;2023-03-26T01:11:35;7.90;99.90
52321;DHT22;38261;54.090;13.382;2023-03-26T01:12:57;7.90;99.90
52321;DHT22;38261;54.090;13.382;2023-03-26T01:14:22;7.90;99.90
52321;DHT22;38261;54.090;13.382;2023-03-26T01:15:46;7.90;99.90
52321;DHT22;38261;54.090;13.382;2023-03-26T01:17:12;7.90;99.90
52321;DHT22;38261;54.090;13.382;2023-03-26T01:18:36;7.90;99.90
52321;DHT22;38261;54.090;13.382;2023-03-26T01:20:20;8.00;99.90
52321;DHT22;38261;54.090;13.382;2023-03-26T01:21:48;8.00;99.90
52321;DHT22;38261;54.090;13.382;2023-03-26T01:23:10;8.00;99.90
52321;DHT22;38261;54.090;13.382;2023-03-26T01:24:32;8.00;99.90
52321;DHT22;38261;54.090;13.382;2023-03-26T01:26:04;8.00;99.90
52321;DHT22;38261;54.090;13.382;2023-03-26T01:29:03;8.00;99.90
52321;DHT22;38261;54.090;13.382;2023-03-26T01:30:41;8.00;99.90
52321;DHT22;38261;54.090;13.382;2023-03-26T01:32:20;8.00;99.90
52321;DHT22;38261;54.090;13.382;2023-03-26T01:33:48;8.00;99.90
52321;DHT22;38261;54.090;13.382;2023-03-26T01:39:33;8.00;99.90
52321;DHT22;38261;54.090;13.382;2023-03-26T01:40:34;8.00;99.90
52321;DHT22;38261;54.090;13.382;2023-03-26T01:44:05;7.90;99.90
52321;DHT22;38261;54.090;13.382;2023-03-26T01:45:31;7.90;99.90
52321;DHT22;38261;54.090;13.382;2023-03-26T01:46:55;7.90;99.90
52321;DHT22;38261;54.090;13.382;2023-03-26T01:48:18;7.90;99.90
52321;DHT22;38261;54.090;13.382;2023-03-26T01:49:40;7.90;99.90
52321;DHT22;38261;54.090;13.382;2023-03-26T01:51:03;7.90;99.90
52321;DHT22;38261;54.090;13.382;2023-03-26T01:52:26;7.90;99.90
52321;DHT22;38261;54.090;13.382;2023-03-26T01:53:48;7.80;99.90
52321;DHT22;38261;54.090;13.382;2023-03-26T01:55:11;7.80;99.90
52321;DHT22;38261;54.090;13.382;2023-03-26T01:58:34;7.80;99.90
52321;DHT22;38261;54.090;13.382;2023-03-26T02:03:48;7.70;99.90
52321;DHT22;38261;54.090;13.382;2023-03-26T02:05:21;7.70;99.90
52321;DHT22;38261;54.090;13.382;2023-03-26T02:06:49;7.70;99.90
52321;DHT22;38261;54.090;13.382;2023-03-26T02:08:36;7.70;99.90
52321;DHT22;38261;54.090;13.382;2023-03-26T02:10:05;7.70;99.90
52321;DHT22;38261;54.090;13.382;2023-03-26T02:11:28;7.70;99.90
52321;DHT22;38261;54.090;13.382;2023-03-26T02:12:58;7.70;99.90
52321;DHT22;38261;54.090;13.382;2023-03-26T02:14:20;7.70;99.90
52321;DHT22;38261;54.090;13.382;2023-03-26T02:15:57;7.60;99.90
52321;DHT22;38261;54.090;13.382;2023-03-26T02:17:20;7.60;99.90
52321;DHT22;38261;54.090;13.382;2023-03-26T02:18:46;7.60;99.90
52321;DHT22;38261;54.090;13.382;2023-03-26T02:20:13;7.60;99.90
52321;DHT22;38261;54.090;13.382;2023-03-26T02:21:35;7.60;99.90
52321;DHT22;38261;54.090;13.382;2023-03-26T02:22:57;7.60;99.90
52321;DHT22;38261;54.090;13.382;2023-03-26T02:24:20;7.60;99.90
52321;DHT22;38261;54.090;13.382;2023-03-26T02:25:42;7.60;99.90
52321;DHT22;38261;54.090;13.382;2023-03-26T02:27:05;7.60;99.90
52321;DHT22;38261;54.090;13.382;2023-03-26T02:28:28;7.60;99.90
52321;DHT22;38261;54.090;13.382;2023-03-26T02:29:50;7.60;99.90
52321;DHT22;38261;54.090;13.382;2023-03-26T02:31:12;7.60;99.90
52321;DHT22;38261;54.090;13.382;2023-03-26T02:32:36;7.60;99.90
52321;DHT22;38261;54.090;13.382;2023-03-26T02:33:59;7.50;99.90
52321;DHT22;38261;54.090;13.382;2023-03-26T02:35:22;7.50;99.90
52321;DHT22;38261;54.090;13.382;2023-03-26T02:36:44;7.50;99.90
52321;DHT22;38261;54.090;13.382;2023-03-26T02:38:06;7.50;99.90
52321;DHT22;38261;54.090;13.382;2023-03-26T02:39:30;7.40;99.90
52321;DHT22;38261;54.090;13.382;2023-03-26T02:40:53;7.50;99.90
52321;DHT22;38261;54.090;13.382;2023-03-26T02:42:16;7.40;99.90
52321;DHT22;38261;54.090;13.382;2023-03-26T02:43:38;7.50;99.90
52321;DHT22;38261;54.090;13.382;2023-03-26T02:45:00;7.50;99.90
52321;DHT22;38261;54.090;13.382;2023-03-26T02:46:22;7.50;99.90
52321;DHT22;38261;54.090;13.382;2023-03-26T02:47:44;7.50;99.90
52321;DHT22;38261;54.090;13.382;2023-03-26T02:49:07;7.50;99.90
52321;DHT22;38261;54.090;13.382;2023-03-26T02:50:30;7.50;99.90
52321;DHT22;38261;54.090;13.382;2023-03-26T02:51:53;7.50;99.90
52321;DHT22;38261;54.090;13.382;2023-03-26T02:53:18;7.50;99.90
52321;DHT22;38261;54.090;13.382;2023-03-26T02:54:40;7.50;99.90
52321;DHT22;38261;54.090;13.382;2023-03-26T02:56:02;7.50;99.90
52321;DHT22;38261;54.090;13.382;2023-03-26T02:57:24;7.50;99.90
52321;DHT22;38261;54.090;13.382;2023-03-26T02:58:46;7.50;99.90
52321;DHT22;38261;54.090;13.382;2023-03-26T03:00:09;7.50;99.90
52321;DHT22;38261;54.090;13.382;2023-03-26T03:01:36;7.50;99.90
52321;DHT22;38261;54.090;13.382;2023-03-26T03:03:03;7.60;99.90
52321;DHT22;38261;54.090;13.382;2023-03-26T03:04:27;7.50;99.90
52321;DHT22;38261;54.090;13.382;2023-03-26T03:05:50;7.50;99.90
52321;DHT22;38261;54.090;13.382;2023-03-26T03:07:13;7.50;99.90
52321;DHT22;38261;54.090;13.382;2023-03-26T03:08:35;7.50;99.90
52321;DHT22;38261;54.090;13.382;2023-03-26T03:09:57;7.50;99.90
52321;DHT22;38261;54.090;13.382;2023-03-26T03:11:23;7.40;99.90
52321;DHT22;38261;54.090;13.382;2023-03-26T03:12:46;7.40;99.90
52321;DHT22;38261;54.090;13.382;2023-03-26T03:14:08;7.30;99.90
52321;DHT22;38261;54.090;13.382;2023-03-26T03:15:30;7.30;99.90
52321;DHT22;38261;54.090;13.382;2023-03-26T03:16:52;7.30;99.90
52321;DHT22;38261;54.090;13.382;2023-03-26T03:18:14;7.30;99.90
52321;DHT22;38261;54.090;13.382;2023-03-26T03:19:36;7.30;99.90
52321;DHT22;38261;54.090;13.382;2023-03-26T03:20:59;7.30;99.90
52321;DHT22;38261;54.090;13.382;2023-03-26T03:22:21;7.30;99.90
52321;DHT22;38261;54.090;13.382;2023-03-26T03:23:43;7.30;99.90
52321;DHT22;38261;54.090;13.382;2023-03-26T03:25:06;7.30;99.90
52321;DHT22;38261;54.090;13.382;2023-03-26T03:26:35;7.30;99.90
52321;DHT22;38261;54.090;13.382;2023-03-26T03:27:57;7.30;99.90
52321;DHT22;38261;54.090;13.382;2023-03-26T03:29:19;7.40;99.90
52321;DHT22;38261;54.090;13.382;2023-03-26T03:30:42;7.40;99.90
52321;DHT22;38261;54.090;13.382;2023-03-26T03:32:04;7.40;99.90
52321;DHT22;38261;54.090;13.382;2023-03-26T03:33:26;7.40;99.90
52321;DHT22;38261;54.090;13.382;2023-03-26T03:34:48;7.40;99.90
52321;DHT22;38261;54.090;13.382;2023-03-26T03:36:15;7.40;99.90
52321;DHT22;38261;54.090;13.382;2023-03-26T03:37:42;7.50;99.90
52321;DHT22;38261;54.090;13.382;2023-03-26T03:39:04;7.50;99.90
52321;DHT22;38261;54.090;13.382;2023-03-26T03:40:27;7.50;99.90
52321;DHT22;38261;54.090;13.382;2023-03-26T03:41:49;7.40;99.90
52321;DHT22;38261;54.090;13.382;2023-03-26T03:43:11;7.40;99.90
52321;DHT22;38261;54.090;13.382;2023-03-26T03:44:33;7.40;99.90
52321;DHT22;38261;54.090;13.382;2023-03-26T03:45:55;7.40;99.90
52321;DHT22;38261;54.090;13.382;2023-03-26T03:47:17;7.40;99.90
52321;DHT22;38261;54.090;13.382;2023-03-26T03:48:41;7.40;99.90
52321;DHT22;38261;54.090;13.382;2023-03-26T03:50:09;7.40;99.90
52321;DHT22;38261;54.090;13.382;2023-03-26T03:51:32;7.40;99.90
52321;DHT22;38261;54.090;13.382;2023-03-26T03:52:54;7.40;99.90
52321;DHT22;38261;54.090;13.382;2023-03-26T03:54:16;7.40;99.90
52321;DHT22;38261;54.090;13.382;2023-03-26T03:55:39;7.40;99.90
52321;DHT22;38261;54.090;13.382;2023-03-26T03:57:02;7.40;99.90
52321;DHT22;38261;54.090;13.382;2023-03-26T03:58:25;7.40;99.90
52321;DHT22;38261;54.090;13.382;2023-03-26T03:59:48;7.40;99.90
52321;DHT22;38261;54.090;13.382;2023-03-26T04:01:11;7.40;99.90
52321;DHT22;38261;54.090;13.382;2023-03-26T04:02:34;7.40;99.90
52321;DHT22;38261;54.090;13.382;2023-03-26T04:03:57;7.40;99.90
52321;DHT22;38261;54.090;13.382;2023-03-26T04:05:19;7.50;99.90
52321;DHT22;38261;54.090;13.382;2023-03-26T04:06:42;7.50;99.90
52321;DHT22;38261;54.090;13.382;2023-03-26T04:08:05;7.50;99.90
52321;DHT22;38261;54.090;13.382;2023-03-26T04:09:27;7.50;99.90
52321;DHT22;38261;54.090;13.382;2023-03-26T04:10:50;7.50;99.90
52321;DHT22;38261;54.090;13.382;2023-03-26T04:12:13;7.60;99.90
52321;DHT22;38261;54.090;13.382;2023-03-26T04:13:35;7.60;99.90
52321;DHT22;38261;54.090;13.382;2023-03-26T04:14:58;7.60;99.90
52321;DHT22;38261;54.090;13.382;2023-03-26T04:16:20;7.60;99.90
52321;DHT22;38261;54.090;13.382;2023-03-26T04:17:42;7.60;99.90
52321;DHT22;38261;54.090;13.382;2023-03-26T04:19:05;7.50;99.90
52321;DHT22;38261;54.090;13.382;2023-03-26T04:20:27;7.50;99.90
52321;DHT22;38261;54.090;13.382;2023-03-26T04:21:49;7.50;99.90
52321;DHT22;38261;54.090;13.382;2023-03-26T04:23:12;7.50;99.90
52321;DHT22;38261;54.090;13.382;2023-03-26T04:24:35;7.50;99.90
52321;DHT22;38261;54.090;13.382;2023-03-26T04:26:05;7.40;99.90
52321;DHT22;38261;54.090;13.382;2023-03-26T04:27:29;7.40;99.90
52321;DHT22;38261;54.090;13.382;2023-03-26T04:28:54;7.40;99.90
52321;DHT22;38261;54.090;13.382;2023-03-26T04:30:19;7.40;99.90
52321;DHT22;38261;54.090;13.382;2023-03-26T04:31:41;7.40;99.90
52321;DHT22;38261;54.090;13.382;2023-03-26T04:33:04;7.30;99.90
52321;DHT22;38261;54.090;13.382;2023-03-26T04:34:27;7.40;99.90
52321;DHT22;38261;54.090;13.382;2023-03-26T04:35:51;7.40;99.90
52321;DHT22;38261;54.090;13.382;2023-03-26T04:37:29;7.40;99.90
52321;DHT22;38261;54.090;13.382;2023-03-26T04:39:02;7.40;99.90
52321;DHT22;38261;54.090;13.382;2023-03-26T04:40:25;7.40;99.90
52321;DHT22;38261;54.090;13.382;2023-03-26T04:41:51;7.40;99.90
52321;DHT22;38261;54.090;13.382;2023-03-26T04:43:15;7.40;99.90
52321;DHT22;38261;54.090;13.382;2023-03-26T04:44:38;7.40;99.90
52321;DHT22;38261;54.090;13.382;2023-03-26T04:46:03;7.40;99.90
52321;DHT22;38261;54.090;13.382;2023-03-26T04:47:25;7.40;99.90
52321;DHT22;38261;54.090;13.382;2023-03-26T04:48:49;7.40;99.90
52321;DHT22;38261;54.090;13.382;2023-03-26T04:50:11;7.30;99.90
52321;DHT22;38261;54.090;13.382;2023-03-26T04:51:37;7.30;99.90
52321;DHT22;38261;54.090;13.382;2023-03-26T04:53:00;7.30;99.90
52321;DHT22;38261;54.090;13.382;2023-03-26T04:54:23;7.30;99.90
52321;DHT22;38261;54.090;13.382;2023-03-26T04:56:08;7.30;99.90
52321;DHT22;38261;54.090;13.382;2023-03-26T04:57:41;7.30;99.90
52321;DHT22;38261;54.090;13.382;2023-03-26T04:59:13;7.30;99.90
52321;DHT22;38261;54.090;13.382;2023-03-26T05:00:36;7.30;99.90
52321;DHT22;38261;54.090;13.382;2023-03-26T05:01:58;7.30;99.90
52321;DHT22;38261;54.090;13.382;2023-03-26T05:03:21;7.30;99.90
52321;DHT22;38261;54.090;13.382;2023-03-26T05:04:43;7.30;99.90
52321;DHT22;38261;54.090;13.382;2023-03-26T05:06:09;7.30;99.90
52321;DHT22;38261;54.090;13.382;2023-03-26T05:07:32;7.30;99.90
52321;DHT22;38261;54.090;13.382;2023-03-26T05:08:54;7.30;99.90
52321;DHT22;38261;54.090;13.382;2023-03-26T05:10:16;7.20;99.90
52321;DHT22;38261;54.090;13.382;2023-03-26T05:11:41;7.30;99.90
52321;DHT22;38261;54.090;13.382;2023-03-26T05:13:03;7.30;99.90
52321;DHT22;38261;54.090;13.382;2023-03-26T05:14:25;7.20;99.90
52321;DHT22;38261;54.090;13.382;2023-03-26T05:15:47;7.20;99.90
52321;DHT22;38261;54.090;13.382;2023-03-26T05:17:13;7.30;99.90
52321;DHT22;38261;54.090;13.382;2023-03-26T05:18:36;7.20;99.90
52321;DHT22;38261;54.090;13.382;2023-03-26T05:19:58;7.20;99.90
52321;DHT22;38261;54.090;13.382;2023-03-26T05:21:20;7.30;99.90
52321;DHT22;38261;54.090;13.382;2023-03-26T05:22:43;7.30;99.90
52321;DHT22;38261;54.090;13.382;2023-03-26T05:24:06;7.30;99.90
52321;DHT22;38261;54.090;13.382;2023-03-26T05:25:29;7.30;99.90
52321;DHT22;38261;54.090;13.382;2023-03-26T05:26:52;7.30;99.90
52321;DHT22;38261;54.090;13.382;2023-03-26T05:28:14;7.30;99.90
52321;DHT22;38261;54.090;13.382;2023-03-26T05:29:36;7.40;99.90
52321;DHT22;38261;54.090;13.382;2023-03-26T05:30:58;7.40;99.90
52321;DHT22;38261;54.090;13.382;2023-03-26T05:32:21;7.30;99.90
52321;DHT22;38261;54.090;13.382;2023-03-26T05:33:44;7.40;99.90
52321;DHT22;38261;54.090;13.382;2023-03-26T05:35:07;7.40;99.90
52321;DHT22;38261;54.090;13.382;2023-03-26T05:36:30;7.40;99.90
52321;DHT22;38261;54.090;13.382;2023-03-26T05:37:52;7.40;99.90
52321;DHT22;38261;54.090;13.382;2023-03-26T05:39:14;7.40;99.90
52321;DHT22;38261;54.090;13.382;2023-03-26T05:40:36;7.40;99.90
52321;DHT22;38261;54.090;13.382;2023-03-26T05:41:58;7.40;99.90
52321;DHT22;38261;54.090;13.382;2023-03-26T05:43:21;7.40;99.90
52321;DHT22;38261;54.090;13.382;2023-03-26T05:44:43;7.40;99.90
52321;DHT22;38261;54.090;13.382;2023-03-26T05:46:05;7.40;99.90
52321;DHT22;38261;54.090;13.382;2023-03-26T05:47:27;7.40;99.90
52321;DHT22;38261;54.090;13.382;2023-03-26T05:48:50;7.40;99.90
52321;DHT22;38261;54.090;13.382;2023-03-26T05:50:12;7.40;99.90
52321;DHT22;38261;54.090;13.382;2023-03-26T05:51:35;7.30;99.90
52321;DHT22;38261;54.090;13.382;2023-03-26T05:52:57;7.30;99.90
52321;DHT22;38261;54.090;13.382;2023-03-26T05:54:19;7.40;99.90
52321;DHT22;38261;54.090;13.382;2023-03-26T05:55:46;7.30;99.90
52321;DHT22;38261;54.090;13.382;2023-03-26T05:57:11;7.30;99.90
52321;DHT22;38261;54.090;13.382;2023-03-26T05:58:34;7.40;99.90
52321;DHT22;38261;54.090;13.382;2023-03-26T05:59:57;7.40;99.90
52321;DHT22;38261;54.090;13.382;2023-03-26T06:01:19;7.50;99.90
52321;DHT22;38261;54.090;13.382;2023-03-26T06:02:41;7.50;99.90
52321;DHT22;38261;54.090;13.382;2023-03-26T06:04:04;7.60;99.90
52321;DHT22;38261;54.090;13.382;2023-03-26T06:05:26;7.60;99.90
52321;DHT22;38261;54.090;13.382;2023-03-26T06:06:53;7.60;99.90
52321;DHT22;38261;54.090;13.382;2023-03-26T06:08:15;7.60;99.90
52321;DHT22;38261;54.090;13.382;2023-03-26T06:09:38;7.60;99.90
52321;DHT22;38261;54.090;13.382;2023-03-26T06:11:02;7.60;99.90
52321;DHT22;38261;54.090;13.382;2023-03-26T06:12:25;7.60;99.90
52321;DHT22;38261;54.090;13.382;2023-03-26T06:13:47;7.70;99.90
52321;DHT22;38261;54.090;13.382;2023-03-26T06:15:10;7.70;99.90
52321;DHT22;38261;54.090;13.382;2023-03-26T06:16:32;7.70;99.90
52321;DHT22;38261;54.090;13.382;2023-03-26T06:17:55;7.70;99.90
52321;DHT22;38261;54.090;13.382;2023-03-26T06:19:17;7.70;99.90
52321;DHT22;38261;54.090;13.382;2023-03-26T06:20:40;7.70;99.90
52321;DHT22;38261;54.090;13.382;2023-03-26T06:22:03;7.60;99.90
52321;DHT22;38261;54.090;13.382;2023-03-26T06:23:26;7.60;99.90
52321;DHT22;38261;54.090;13.382;2023-03-26T06:24:48;7.60;99.90
52321;DHT22;38261;54.090;13.382;2023-03-26T06:26:11;7.60;99.90
52321;DHT22;38261;54.090;13.382;2023-03-26T06:27:33;7.70;99.90
52321;DHT22;38261;54.090;13.382;2023-03-26T06:28:55;7.80;99.90
52321;DHT22;38261;54.090;13.382;2023-03-26T06:30:17;7.90;99.90
52321;DHT22;38261;54.090;13.382;2023-03-26T06:31:40;7.90;99.90
52321;DHT22;38261;54.090;13.382;2023-03-26T06:33:02;7.80;99.90
52321;DHT22;38261;54.090;13.382;2023-03-26T06:34:24;7.80;99.90
52321;DHT22;38261;54.090;13.382;2023-03-26T06:35:47;7.80;99.90
52321;DHT22;38261;54.090;13.382;2023-03-26T06:37:09;7.90;99.90
52321;DHT22;38261;54.090;13.382;2023-03-26T06:38:31;8.00;99.90
52321;DHT22;38261;54.090;13.382;2023-03-26T06:39:53;8.00;99.90
52321;DHT22;38261;54.090;13.382;2023-03-26T06:41:15;8.00;99.90
52321;DHT22;38261;54.090;13.382;2023-03-26T06:42:37;8.00;99.90
52321;DHT22;38261;54.090;13.382;2023-03-26T06:44:20;8.00;99.90
52321;DHT22;38261;54.090;13.382;2023-03-26T06:45:42;8.00;99.90
52321;DHT22;38261;54.090;13.382;2023-03-26T06:48:11;8.20;99.90
52321;DHT22;38261;54.090;13.382;2023-03-26T06:49:33;8.30;99.90
52321;DHT22;38261;54.090;13.382;2023-03-26T06:50:56;8.40;99.90
52321;DHT22;38261;54.090;13.382;2023-03-26T06:52:18;8.50;99.90
52321;DHT22;38261;54.090;13.382;2023-03-26T06:53:40;8.60;99.90
52321;DHT22;38261;54.090;13.382;2023-03-26T06:55:04;8.60;99.90
52321;DHT22;38261;54.090;13.382;2023-03-26T06:56:27;8.60;99.90
52321;DHT22;38261;54.090;13.382;2023-03-26T06:57:50;8.60;99.90
52321;DHT22;38261;54.090;13.382;2023-03-26T06:59:12;8.60;99.90
52321;DHT22;38261;54.090;13.382;2023-03-26T07:00:35;8.50;99.90
52321;DHT22;38261;54.090;13.382;2023-03-26T07:01:57;8.50;99.90
52321;DHT22;38261;54.090;13.382;2023-03-26T07:03:19;8.50;99.90
52321;DHT22;38261;54.090;13.382;2023-03-26T07:04:41;8.40;99.90
52321;DHT22;38261;54.090;13.382;2023-03-26T07:06:03;8.40;99.90
52321;DHT22;38261;54.090;13.382;2023-03-26T07:07:25;8.40;99.90
52321;DHT22;38261;54.090;13.382;2023-03-26T07:08:47;8.40;99.90
52321;DHT22;38261;54.090;13.382;2023-03-26T07:10:10;8.40;99.90
52321;DHT22;38261;54.090;13.382;2023-03-26T07:11:32;8.50;99.90
52321;DHT22;38261;54.090;13.382;2023-03-26T07:12:54;8.50;99.90
52321;DHT22;38261;54.090;13.382;2023-03-26T07:14:16;8.50;99.90
52321;DHT22;38261;54.090;13.382;2023-03-26T07:15:38;8.50;99.90
52321;DHT22;38261;54.090;13.382;2023-03-26T07:17:00;8.50;99.90
52321;DHT22;38261;54.090;13.382;2023-03-26T07:18:22;8.40;99.90
52321;DHT22;38261;54.090;13.382;2023-03-26T07:19:44;8.50;99.90
52321;DHT22;38261;54.090;13.382;2023-03-26T07:21:07;8.60;99.90
52321;DHT22;38261;54.090;13.382;2023-03-26T07:22:30;8.60;99.90
52321;DHT22;38261;54.090;13.382;2023-03-26T07:23:52;8.70;99.90
52321;DHT22;38261;54.090;13.382;2023-03-26T07:25:18;8.60;99.90
52321;DHT22;38261;54.090;13.382;2023-03-26T07:28:33;8.30;99.90
52321;DHT22;38261;54.090;13.382;2023-03-26T07:30:23;8.20;99.90
52321;DHT22;38261;54.090;13.382;2023-03-26T07:32:12;8.00;99.90
52321;DHT22;38261;54.090;13.382;2023-03-26T07:34:04;7.80;99.90
52321;DHT22;38261;54.090;13.382;2023-03-26T07:35:29;7.60;99.90
52321;DHT22;38261;54.090;13.382;2023-03-26T07:37:01;7.50;99.90
52321;DHT22;38261;54.090;13.382;2023-03-26T07:41:54;7.30;99.90
52321;DHT22;38261;54.090;13.382;2023-03-26T07:46:49;7.40;99.90
52321;DHT22;38261;54.090;13.382;2023-03-26T07:48:21;7.40;99.90
52321;DHT22;38261;54.090;13.382;2023-03-26T07:49:46;7.40;99.90
52321;DHT22;38261;54.090;13.382;2023-03-26T07:51:09;7.40;99.90
52321;DHT22;38261;54.090;13.382;2023-03-26T07:52:32;7.40;99.90
52321;DHT22;38261;54.090;13.382;2023-03-26T07:53:54;7.40;99.90
52321;DHT22;38261;54.090;13.382;2023-03-26T07:55:17;7.50;99.90
52321;DHT22;38261;54.090;13.382;2023-03-26T07:56:48;7.50;99.90
52321;DHT22;38261;54.090;13.382;2023-03-26T08:00:00;7.50;99.90
52321;DHT22;38261;54.090;13.382;2023-03-26T08:05:17;7.90;99.90
52321;DHT22;38261;54.090;13.382;2023-03-26T08:06:53;7.90;99.90
52321;DHT22;38261;54.090;13.382;2023-03-26T08:08:22;7.90;99.90
52321;DHT22;38261;54.090;13.382;2023-03-26T08:10:13;7.90;99.90
52321;DHT22;38261;54.090;13.382;2023-03-26T08:21:54;8.50;99.90
52321;DHT22;38261;54.090;13.382;2023-03-26T08:26:29;8.50;99.90
52321;DHT22;38261;54.090;13.382;2023-03-26T08:30:27;8.50;99.90
52321;DHT22;38261;54.090;13.382;2023-03-26T08:31:32;8.60;99.90
52321;DHT22;38261;54.090;13.382;2023-03-26T08:33:01;8.80;99.90
52321;DHT22;38261;54.090;13.382;2023-03-26T08:34:25;8.90;99.90
52321;DHT22;38261;54.090;13.382;2023-03-26T08:35:48;8.90;99.90
52321;DHT22;38261;54.090;13.382;2023-03-26T08:37:10;9.00;99.90
52321;DHT22;38261;54.090;13.382;2023-03-26T08:38:32;9.00;99.90
52321;DHT22;38261;54.090;13.382;2023-03-26T08:39:54;9.00;99.90
52321;DHT22;38261;54.090;13.382;2023-03-26T08:43:42;8.70;99.90
52321;DHT22;38261;54.090;13.382;2023-03-26T09:01:26;7.30;99.90
52321;DHT22;38261;54.090;13.382;2023-03-26T09:20:50;8.10;99.90
52321;DHT22;38261;54.090;13.382;2023-03-26T09:24:24;8.20;99.90
52321;DHT22;38261;54.090;13.382;2023-03-26T09:25:52;8.20;99.90
52321;DHT22;38261;54.090;13.382;2023-03-26T09:27:36;8.20;99.90
52321;DHT22;38261;54.090;13.382;2023-03-26T09:29:32;8.20;99.90
52321;DHT22;38261;54.090;13.382;2023-03-26T09:35:53;8.20;99.90
52321;DHT22;38261;54.090;13.382;2023-03-26T09:42:52;8.10;99.90
52321;DHT22;38261;54.090;13.382;2023-03-26T09:44:31;8.10;99.90
52321;DHT22;38261;54.090;13.382;2023-03-26T09:46:45;8.00;99.90
52321;DHT22;38261;54.090;13.382;2023-03-26T09:55:05;8.70;99.90
52321;DHT22;38261;54.090;13.382;2023-03-26T09:56:35;8.70;99.90
52321;DHT22;38261;54.090;13.382;2023-03-26T10:00:06;8.00;99.90
52321;DHT22;38261;54.090;13.382;2023-03-26T10:07:04;9.10;99.90
52321;DHT22;38261;54.090;13.382;2023-03-26T10:12:14;9.80;99.90
52321;DHT22;38261;54.090;13.382;2023-03-26T10:18:35;9.80;99.90
52321;DHT22;38261;54.090;13.382;2023-03-26T10:21:36;10.60;99.90
52321;DHT22;38261;54.090;13.382;2023-03-26T10:27:00;11.10;99.90
52321;DHT22;38261;54.090;13.382;2023-03-26T10:32:13;10.50;99.90
52321;DHT22;38261;54.090;13.382;2023-03-26T10:35:46;10.00;99.90
52321;DHT22;38261;54.090;13.382;2023-03-26T10:41:15;8.80;99.90
52321;DHT22;38261;54.090;13.382;2023-03-26T10:52:43;8.10;99.90
52321;DHT22;38261;54.090;13.382;2023-03-26T10:55:42;8.60;99.90
52321;DHT22;38261;54.090;13.382;2023-03-26T10:58:48;8.60;99.90
52321;DHT22;38261;54.090;13.382;2023-03-26T11:00:24;8.60;99.90
52321;DHT22;38261;54.090;13.382;2023-03-26T11:03:45;8.70;99.90
52321;DHT22;38261;54.090;13.382;2023-03-26T11:05:25;8.80;99.90
52321;DHT22;38261;54.090;13.382;2023-03-26T11:10:29;8.70;99.90
52321;DHT22;38261;54.090;13.382;2023-03-26T11:14:13;8.60;99.90
52321;DHT22;38261;54.090;13.382;2023-03-26T11:16:14;8.60;99.90
52321;DHT22;38261;54.090;13.382;2023-03-26T11:17:44;8.70;99.90
52321;DHT22;38261;54.090;13.382;2023-03-26T11:19:18;8.60;99.90
52321;DHT22;38261;54.090;13.382;2023-03-26T11:20:45;8.50;99.90
52321;DHT22;38261;54.090;13.382;2023-03-26T11:22:22;8.50;99.90
52321;DHT22;38261;54.090;13.382;2023-03-26T11:27:37;9.00;99.90
52321;DHT22;38261;54.090;13.382;2023-03-26T11:33:08;10.00;99.90
52321;DHT22;38261;54.090;13.382;2023-03-26T11:34:59;10.30;99.90
52321;DHT22;38261;54.090;13.382;2023-03-26T11:36:24;10.60;99.90
52321;DHT22;38261;54.090;13.382;2023-03-26T11:37:53;10.90;99.90